Pagina principale
METAR-TAF:

METAR-TAF

Aeroporti :

Aeroporto di Comiso

Comiso, Italia

latitudine: 36-59-30N, longitudine: 14-36-25E, altezza: 190 m

Osservazione

Il bollettino è stato emesso 26 minuti fa, alle 02:50 UTC
Vento 4 kt da est/nord-est
Temperature 4°C
Umidità 81%
Pressione 1024 hPa
Visibilità 10 km o più

METAR: LICB 240250Z AUTO 06004KT 9999 NCD 04/01 Q1024

Ora: 04:16 (03:16 UTC)

Previsione

Il bollettino è stato emesso 1 ora e 16 minuti fa, alle 02:00 UTC
Previsione valida dal 24 alle 03 UTC al 24 alle 12 UTC
Vento 5 kt da direzioni variabili
Visibilità 10 km o più
Poco nuvoloso ad un'altezza di 4000 ft

TAF: LICB 240200Z 2403/2412 VRB05KT 9999 FEW040

Osservazioni e previsioni meteorologiche di più di 4000 aeroporti (messaggi METAR e TAF).

Le stazioni disponibili sono rappresentate dai dischi gialli e rossi sulla carta.

Puntare il mouse per vedere il nome della stazione.

Clicca sopra per visualizzare le osservazioni e previsioni meteorologiche.

Per cambiare la mappa : fare clic sui pulsanti verdi con una croce nera per ingrandire, il pulsante verde con un trattino per diminuire, o sulla freccia verde per le mappe adiacenti.


METAR-TAF: